sensor_id;sensor_type;location;lat;lon;timestamp;pressure;altitude;pressure_sealevel;temperature;humidity
21658;BME280;10990;48.174;9.782;2023-02-12T00:01:14;96073.56;;;2.36;100.00
21658;BME280;10990;48.174;9.782;2023-02-12T00:03:41;96070.13;;;2.35;100.00
21658;BME280;10990;48.174;9.782;2023-02-12T00:06:09;96059.78;;;2.34;100.00
21658;BME280;10990;48.174;9.782;2023-02-12T00:08:38;96062.66;;;2.29;100.00
21658;BME280;10990;48.174;9.782;2023-02-12T00:11:09;96061.72;;;2.30;100.00
21658;BME280;10990;48.174;9.782;2023-02-12T00:13:37;96058.38;;;2.28;100.00
21658;BME280;10990;48.174;9.782;2023-02-12T00:16:05;96061.78;;;2.14;100.00
21658;BME280;10990;48.174;9.782;2023-02-12T00:18:33;96050.25;;;2.33;100.00
21658;BME280;10990;48.174;9.782;2023-02-12T00:21:00;96052.59;;;2.37;100.00
21658;BME280;10990;48.174;9.782;2023-02-12T00:23:27;96062.53;;;2.31;100.00
21658;BME280;10990;48.174;9.782;2023-02-12T00:25:55;96068.97;;;2.25;100.00
21658;BME280;10990;48.174;9.782;2023-02-12T00:28:22;96065.03;;;2.18;100.00
21658;BME280;10990;48.174;9.782;2023-02-12T00:30:49;96060.84;;;2.15;100.00
21658;BME280;10990;48.174;9.782;2023-02-12T00:33:16;96055.25;;;2.21;100.00
21658;BME280;10990;48.174;9.782;2023-02-12T00:35:44;96045.97;;;2.32;100.00
21658;BME280;10990;48.174;9.782;2023-02-12T00:38:10;96038.16;;;2.32;100.00
21658;BME280;10990;48.174;9.782;2023-02-12T00:40:37;96030.72;;;2.40;100.00
21658;BME280;10990;48.174;9.782;2023-02-12T00:43:05;96044.47;;;2.42;100.00
21658;BME280;10990;48.174;9.782;2023-02-12T00:45:32;96041.81;;;2.43;100.00
21658;BME280;10990;48.174;9.782;2023-02-12T00:47:59;96047.78;;;2.45;100.00
21658;BME280;10990;48.174;9.782;2023-02-12T00:50:26;96044.41;;;2.43;100.00
21658;BME280;10990;48.174;9.782;2023-02-12T00:52:52;96048.88;;;2.41;100.00
21658;BME280;10990;48.174;9.782;2023-02-12T00:55:20;96048.69;;;2.44;100.00
21658;BME280;10990;48.174;9.782;2023-02-12T00:57:46;96049.44;;;2.46;100.00
21658;BME280;10990;48.174;9.782;2023-02-12T01:00:15;96052.25;;;2.43;100.00
21658;BME280;10990;48.174;9.782;2023-02-12T01:02:42;96058.22;;;2.45;100.00
21658;BME280;10990;48.174;9.782;2023-02-12T01:05:09;96062.41;;;2.34;100.00
21658;BME280;10990;48.174;9.782;2023-02-12T01:07:36;96045.69;;;2.36;100.00
21658;BME280;10990;48.174;9.782;2023-02-12T01:10:06;96044.75;;;2.23;100.00
21658;BME280;10990;48.174;9.782;2023-02-12T01:12:33;96025.28;;;2.29;100.00
21658;BME280;10990;48.174;9.782;2023-02-12T01:15:00;96021.16;;;2.24;100.00
21658;BME280;10990;48.174;9.782;2023-02-12T01:17:28;96008.03;;;2.40;100.00
21658;BME280;10990;48.174;9.782;2023-02-12T01:19:56;96004.28;;;2.30;100.00
21658;BME280;10990;48.174;9.782;2023-02-12T01:22:24;95995.66;;;2.44;100.00
21658;BME280;10990;48.174;9.782;2023-02-12T01:24:51;95992.97;;;2.45;100.00
21658;BME280;10990;48.174;9.782;2023-02-12T01:27:17;95985.13;;;2.45;100.00
21658;BME280;10990;48.174;9.782;2023-02-12T01:29:44;95986.03;;;2.44;100.00
21658;BME280;10990;48.174;9.782;2023-02-12T01:32:11;95980.94;;;2.43;100.00
21658;BME280;10990;48.174;9.782;2023-02-12T01:34:39;95987.91;;;2.42;100.00
21658;BME280;10990;48.174;9.782;2023-02-12T01:37:06;95996.03;;;2.38;100.00
21658;BME280;10990;48.174;9.782;2023-02-12T01:39:33;95985.38;;;2.41;100.00
21658;BME280;10990;48.174;9.782;2023-02-12T01:42:00;95970.47;;;2.43;100.00
21658;BME280;10990;48.174;9.782;2023-02-12T01:44:28;95963.94;;;2.50;100.00
21658;BME280;10990;48.174;9.782;2023-02-12T01:46:57;95954.06;;;2.55;100.00
21658;BME280;10990;48.174;9.782;2023-02-12T01:49:27;95953.03;;;2.58;100.00
21658;BME280;10990;48.174;9.782;2023-02-12T01:52:03;95966.66;;;2.49;100.00
21658;BME280;10990;48.174;9.782;2023-02-12T01:54:32;95949.50;;;2.44;100.00
21658;BME280;10990;48.174;9.782;2023-02-12T01:57:01;95945.59;;;2.52;100.00
21658;BME280;10990;48.174;9.782;2023-02-12T01:59:31;95941.47;;;2.47;100.00
21658;BME280;10990;48.174;9.782;2023-02-12T02:01:58;95937.00;;;2.50;100.00
21658;BME280;10990;48.174;9.782;2023-02-12T02:04:28;95941.56;;;2.46;100.00
21658;BME280;10990;48.174;9.782;2023-02-12T02:06:57;95945.66;;;2.36;100.00
21658;BME280;10990;48.174;9.782;2023-02-12T02:09:27;95940.00;;;2.29;100.00
21658;BME280;10990;48.174;9.782;2023-02-12T02:11:54;95923.00;;;2.36;100.00
21658;BME280;10990;48.174;9.782;2023-02-12T02:14:40;95910.44;;;2.29;100.00
21658;BME280;10990;48.174;9.782;2023-02-12T02:17:29;95912.13;;;2.30;100.00
21658;BME280;10990;48.174;9.782;2023-02-12T02:23:26;95909.75;;;2.11;100.00
21658;BME280;10990;48.174;9.782;2023-02-12T02:26:24;95882.38;;;2.18;100.00
21658;BME280;10990;48.174;9.782;2023-02-12T02:29:16;95855.06;;;2.38;100.00
21658;BME280;10990;48.174;9.782;2023-02-12T02:31:51;95840.78;;;2.43;100.00
21658;BME280;10990;48.174;9.782;2023-02-12T02:34:28;95842.78;;;2.40;100.00
21658;BME280;10990;48.174;9.782;2023-02-12T02:37:04;95829.31;;;2.46;100.00
21658;BME280;10990;48.174;9.782;2023-02-12T02:39:36;95828.97;;;2.38;100.00
21658;BME280;10990;48.174;9.782;2023-02-12T02:42:10;95834.28;;;2.22;100.00
21658;BME280;10990;48.174;9.782;2023-02-12T02:44:47;95810.78;;;2.36;100.00
21658;BME280;10990;48.174;9.782;2023-02-12T02:47:19;95803.13;;;2.33;100.00
21658;BME280;10990;48.174;9.782;2023-02-12T02:49:50;95799.50;;;2.36;100.00
21658;BME280;10990;48.174;9.782;2023-02-12T02:52:23;95794.47;;;2.33;100.00
21658;BME280;10990;48.174;9.782;2023-02-12T02:54:53;95781.63;;;2.30;100.00
21658;BME280;10990;48.174;9.782;2023-02-12T02:57:24;95768.66;;;2.42;100.00
21658;BME280;10990;48.174;9.782;2023-02-12T02:59:55;95758.00;;;2.45;100.00
21658;BME280;10990;48.174;9.782;2023-02-12T03:02:32;95753.22;;;2.52;100.00
21658;BME280;10990;48.174;9.782;2023-02-12T03:05:03;95758.66;;;2.49;100.00
21658;BME280;10990;48.174;9.782;2023-02-12T03:07:36;95764.25;;;2.43;100.00
21658;BME280;10990;48.174;9.782;2023-02-12T03:10:08;95748.13;;;2.51;100.00
21658;BME280;10990;48.174;9.782;2023-02-12T03:12:40;95751.44;;;2.53;100.00
21658;BME280;10990;48.174;9.782;2023-02-12T03:15:12;95765.19;;;2.42;100.00
21658;BME280;10990;48.174;9.782;2023-02-12T03:17:44;95758.69;;;2.35;100.00
21658;BME280;10990;48.174;9.782;2023-02-12T03:20:15;95765.38;;;2.39;100.00
21658;BME280;10990;48.174;9.782;2023-02-12T03:22:47;95760.91;;;2.41;100.00
21658;BME280;10990;48.174;9.782;2023-02-12T03:25:19;95763.78;;;2.36;100.00
21658;BME280;10990;48.174;9.782;2023-02-12T03:27:51;95763.16;;;2.33;100.00
21658;BME280;10990;48.174;9.782;2023-02-12T03:30:23;95751.06;;;2.32;100.00
21658;BME280;10990;48.174;9.782;2023-02-12T03:33:01;95747.31;;;2.36;100.00
21658;BME280;10990;48.174;9.782;2023-02-12T03:35:31;95733.78;;;2.43;100.00
21658;BME280;10990;48.174;9.782;2023-02-12T03:38:05;95732.13;;;2.42;100.00
21658;BME280;10990;48.174;9.782;2023-02-12T03:40:38;95726.78;;;2.44;100.00
21658;BME280;10990;48.174;9.782;2023-02-12T03:43:11;95726.16;;;2.40;100.00
21658;BME280;10990;48.174;9.782;2023-02-12T03:45:44;95719.97;;;2.41;100.00
21658;BME280;10990;48.174;9.782;2023-02-12T03:48:18;95728.75;;;2.40;100.00
21658;BME280;10990;48.174;9.782;2023-02-12T03:50:52;95726.44;;;2.36;100.00
21658;BME280;10990;48.174;9.782;2023-02-12T03:53:20;95726.28;;;2.24;100.00
21658;BME280;10990;48.174;9.782;2023-02-12T03:55:50;95712.00;;;2.30;100.00
21658;BME280;10990;48.174;9.782;2023-02-12T03:58:21;95704.50;;;2.38;100.00
21658;BME280;10990;48.174;9.782;2023-02-12T04:00:50;95710.75;;;2.36;100.00
21658;BME280;10990;48.174;9.782;2023-02-12T04:03:18;95701.91;;;2.38;100.00
21658;BME280;10990;48.174;9.782;2023-02-12T04:05:44;95705.72;;;2.20;100.00
21658;BME280;10990;48.174;9.782;2023-02-12T04:08:11;95681.97;;;2.37;100.00
21658;BME280;10990;48.174;9.782;2023-02-12T04:10:46;95679.59;;;2.47;100.00
21658;BME280;10990;48.174;9.782;2023-02-12T04:13:23;95672.78;;;2.44;100.00
21658;BME280;10990;48.174;9.782;2023-02-12T04:16:04;95674.22;;;2.36;100.00
21658;BME280;10990;48.174;9.782;2023-02-12T04:18:39;95667.34;;;2.35;100.00
21658;BME280;10990;48.174;9.782;2023-02-12T04:21:12;95662.47;;;2.43;100.00
21658;BME280;10990;48.174;9.782;2023-02-12T04:23:48;95664.72;;;2.35;100.00
21658;BME280;10990;48.174;9.782;2023-02-12T04:26:25;95647.09;;;2.38;100.00
21658;BME280;10990;48.174;9.782;2023-02-12T04:29:04;95655.81;;;2.24;100.00
21658;BME280;10990;48.174;9.782;2023-02-12T04:31:37;95646.75;;;2.30;100.00
21658;BME280;10990;48.174;9.782;2023-02-12T04:34:09;95625.78;;;2.32;100.00
21658;BME280;10990;48.174;9.782;2023-02-12T04:36:44;95621.00;;;2.38;100.00
21658;BME280;10990;48.174;9.782;2023-02-12T04:39:16;95613.06;;;2.40;100.00
21658;BME280;10990;48.174;9.782;2023-02-12T04:41:44;95603.25;;;2.43;100.00
21658;BME280;10990;48.174;9.782;2023-02-12T04:44:16;95602.53;;;2.41;100.00
21658;BME280;10990;48.174;9.782;2023-02-12T04:46:43;95603.88;;;2.34;100.00
21658;BME280;10990;48.174;9.782;2023-02-12T04:49:14;95594.91;;;2.38;100.00
21658;BME280;10990;48.174;9.782;2023-02-12T04:51:42;95588.44;;;2.31;100.00
21658;BME280;10990;48.174;9.782;2023-02-12T04:54:09;95563.28;;;2.43;100.00
21658;BME280;10990;48.174;9.782;2023-02-12T04:56:36;95567.88;;;2.39;100.00
21658;BME280;10990;48.174;9.782;2023-02-12T04:59:02;95566.72;;;2.43;100.00
21658;BME280;10990;48.174;9.782;2023-02-12T05:01:29;95568.72;;;2.40;100.00
21658;BME280;10990;48.174;9.782;2023-02-12T05:03:56;95569.94;;;2.34;100.00
21658;BME280;10990;48.174;9.782;2023-02-12T05:06:24;95553.59;;;2.45;100.00
21658;BME280;10990;48.174;9.782;2023-02-12T05:08:51;95551.81;;;2.45;100.00
21658;BME280;10990;48.174;9.782;2023-02-12T05:11:19;95551.16;;;2.42;100.00
21658;BME280;10990;48.174;9.782;2023-02-12T05:13:47;95543.53;;;2.39;100.00
21658;BME280;10990;48.174;9.782;2023-02-12T05:16:15;95535.91;;;2.36;100.00
21658;BME280;10990;48.174;9.782;2023-02-12T05:18:43;95523.59;;;2.38;100.00
21658;BME280;10990;48.174;9.782;2023-02-12T05:21:10;95523.19;;;2.44;100.00
21658;BME280;10990;48.174;9.782;2023-02-12T05:23:39;95529.84;;;2.35;100.00
21658;BME280;10990;48.174;9.782;2023-02-12T05:26:07;95532.75;;;2.31;100.00
21658;BME280;10990;48.174;9.782;2023-02-12T05:28:35;95526.91;;;2.27;100.00
21658;BME280;10990;48.174;9.782;2023-02-12T05:31:04;95518.16;;;2.28;100.00
21658;BME280;10990;48.174;9.782;2023-02-12T05:33:32;95507.53;;;2.31;100.00
21658;BME280;10990;48.174;9.782;2023-02-12T05:36:03;95523.47;;;2.27;100.00
21658;BME280;10990;48.174;9.782;2023-02-12T05:38:30;95514.00;;;2.26;100.00
21658;BME280;10990;48.174;9.782;2023-02-12T05:41:02;95512.84;;;2.30;100.00
21658;BME280;10990;48.174;9.782;2023-02-12T05:43:28;95524.19;;;2.16;100.00
21658;BME280;10990;48.174;9.782;2023-02-12T05:45:57;95504.38;;;2.26;100.00
21658;BME280;10990;48.174;9.782;2023-02-12T05:48:24;95504.25;;;2.28;100.00
21658;BME280;10990;48.174;9.782;2023-02-12T05:50:51;95495.53;;;2.29;100.00
21658;BME280;10990;48.174;9.782;2023-02-12T05:53:18;95488.53;;;2.29;100.00
21658;BME280;10990;48.174;9.782;2023-02-12T05:55:45;95494.56;;;2.17;100.00
21658;BME280;10990;48.174;9.782;2023-02-12T05:58:13;95489.16;;;2.20;100.00
21658;BME280;10990;48.174;9.782;2023-02-12T06:00:40;95480.16;;;2.24;100.00
21658;BME280;10990;48.174;9.782;2023-02-12T06:03:06;95484.97;;;2.17;100.00
21658;BME280;10990;48.174;9.782;2023-02-12T06:05:33;95480.56;;;2.18;100.00
21658;BME280;10990;48.174;9.782;2023-02-12T06:08:00;95477.13;;;2.17;100.00
21658;BME280;10990;48.174;9.782;2023-02-12T06:10:26;95473.03;;;2.13;100.00
21658;BME280;10990;48.174;9.782;2023-02-12T06:12:53;95467.13;;;2.11;100.00
21658;BME280;10990;48.174;9.782;2023-02-12T06:15:21;95461.91;;;2.11;100.00
21658;BME280;10990;48.174;9.782;2023-02-12T06:17:48;95447.78;;;2.14;100.00
21658;BME280;10990;48.174;9.782;2023-02-12T06:20:15;95439.97;;;2.14;100.00
21658;BME280;10990;48.174;9.782;2023-02-12T06:22:42;95434.88;;;2.12;100.00
21658;BME280;10990;48.174;9.782;2023-02-12T06:25:08;95437.78;;;2.08;100.00
21658;BME280;10990;48.174;9.782;2023-02-12T06:27:35;95424.03;;;2.06;100.00
21658;BME280;10990;48.174;9.782;2023-02-12T06:30:02;95412.84;;;2.04;100.00
21658;BME280;10990;48.174;9.782;2023-02-12T06:32:30;95394.16;;;2.10;100.00
21658;BME280;10990;48.174;9.782;2023-02-12T06:34:57;95406.69;;;1.92;100.00
21658;BME280;10990;48.174;9.782;2023-02-12T06:37:24;95395.81;;;1.85;100.00
21658;BME280;10990;48.174;9.782;2023-02-12T06:39:50;95389.56;;;1.75;100.00
21658;BME280;10990;48.174;9.782;2023-02-12T06:42:17;95379.34;;;1.72;100.00
21658;BME280;10990;48.174;9.782;2023-02-12T06:44:44;95374.44;;;1.67;100.00
21658;BME280;10990;48.174;9.782;2023-02-12T06:47:12;95230.94;;;1.69;100.00
21658;BME280;10990;48.174;9.782;2023-02-12T06:49:40;95218.13;;;1.66;100.00
21658;BME280;10990;48.174;9.782;2023-02-12T06:52:07;95207.59;;;1.67;100.00
21658;BME280;10990;48.174;9.782;2023-02-12T06:54:34;95183.94;;;1.70;100.00
21658;BME280;10990;48.174;9.782;2023-02-12T06:57:01;95169.94;;;1.71;100.00
21658;BME280;10990;48.174;9.782;2023-02-12T06:59:28;95151.47;;;1.74;100.00
21658;BME280;10990;48.174;9.782;2023-02-12T07:01:54;95136.34;;;1.79;100.00
21658;BME280;10990;48.174;9.782;2023-02-12T07:04:21;95117.03;;;1.82;100.00
21658;BME280;10990;48.174;9.782;2023-02-12T07:06:49;95100.13;;;1.88;100.00
21658;BME280;10990;48.174;9.782;2023-02-12T07:09:16;95082.28;;;1.94;100.00
21658;BME280;10990;48.174;9.782;2023-02-12T07:11:43;95060.13;;;2.00;100.00
21658;BME280;10990;48.174;9.782;2023-02-12T07:14:13;95035.97;;;2.09;100.00
21658;BME280;10990;48.174;9.782;2023-02-12T07:16:40;95026.28;;;2.11;100.00
21658;BME280;10990;48.174;9.782;2023-02-12T07:19:08;95010.16;;;2.17;100.00
21658;BME280;10990;48.174;9.782;2023-02-12T07:21:37;95009.09;;;2.20;100.00
21658;BME280;10990;48.174;9.782;2023-02-12T07:24:05;94979.22;;;2.35;100.00
21658;BME280;10990;48.174;9.782;2023-02-12T07:26:32;94976.97;;;2.42;100.00
21658;BME280;10990;48.174;9.782;2023-02-12T07:28:59;94957.06;;;2.52;100.00
21658;BME280;10990;48.174;9.782;2023-02-12T07:31:26;94951.13;;;2.61;100.00
21658;BME280;10990;48.174;9.782;2023-02-12T07:33:53;94935.47;;;2.73;100.00
21658;BME280;10990;48.174;9.782;2023-02-12T07:36:20;94940.22;;;2.67;100.00
21658;BME280;10990;48.174;9.782;2023-02-12T07:38:48;94928.84;;;2.68;100.00
21658;BME280;10990;48.174;9.782;2023-02-12T07:41:18;94913.88;;;2.71;100.00
21658;BME280;10990;48.174;9.782;2023-02-12T07:43:47;94890.59;;;2.79;100.00
21658;BME280;10990;48.174;9.782;2023-02-12T07:46:16;94873.53;;;2.75;100.00
21658;BME280;10990;48.174;9.782;2023-02-12T07:48:43;94843.69;;;2.88;100.00
21658;BME280;10990;48.174;9.782;2023-02-12T07:51:12;94831.97;;;2.83;100.00
21658;BME280;10990;48.174;9.782;2023-02-12T07:53:39;94806.19;;;2.89;100.00
21658;BME280;10990;48.174;9.782;2023-02-12T07:56:08;94780.53;;;2.95;100.00
21658;BME280;10990;48.174;9.782;2023-02-12T07:58:37;94765.69;;;2.95;100.00
21658;BME280;10990;48.174;9.782;2023-02-12T08:01:11;94720.53;;;3.04;100.00
21658;BME280;10990;48.174;9.782;2023-02-12T08:03:38;94695.44;;;3.13;100.00
21658;BME280;10990;48.174;9.782;2023-02-12T08:06:07;94667.97;;;3.19;100.00
21658;BME280;10990;48.174;9.782;2023-02-12T08:08:34;94665.03;;;3.12;100.00
21658;BME280;10990;48.174;9.782;2023-02-12T08:11:04;94649.34;;;3.12;100.00
21658;BME280;10990;48.174;9.782;2023-02-12T08:13:31;94632.06;;;3.21;100.00
21658;BME280;10990;48.174;9.782;2023-02-12T08:16:03;94610.41;;;3.30;100.00
21658;BME280;10990;48.174;9.782;2023-02-12T08:18:31;94603.38;;;3.30;100.00
21658;BME280;10990;48.174;9.782;2023-02-12T08:21:03;94591.84;;;3.33;100.00
21658;BME280;10990;48.174;9.782;2023-02-12T08:23:30;94587.56;;;3.32;100.00
21658;BME280;10990;48.174;9.782;2023-02-12T08:26:05;94568.34;;;3.43;100.00
21658;BME280;10990;48.174;9.782;2023-02-12T08:28:32;94576.34;;;3.41;100.00
21658;BME280;10990;48.174;9.782;2023-02-12T08:30:59;94582.66;;;3.39;100.00
21658;BME280;10990;48.174;9.782;2023-02-12T08:33:27;94568.50;;;3.51;100.00
21658;BME280;10990;48.174;9.782;2023-02-12T08:36:00;94558.59;;;3.54;100.00
21658;BME280;10990;48.174;9.782;2023-02-12T08:38:27;94562.88;;;3.55;100.00
21658;BME280;10990;48.174;9.782;2023-02-12T08:40:54;94568.94;;;3.56;100.00
21658;BME280;10990;48.174;9.782;2023-02-12T08:43:21;94560.59;;;3.72;100.00
21658;BME280;10990;48.174;9.782;2023-02-12T08:45:47;94561.41;;;3.72;100.00
21658;BME280;10990;48.174;9.782;2023-02-12T08:48:14;94561.84;;;3.77;100.00
21658;BME280;10990;48.174;9.782;2023-02-12T08:50:42;94569.53;;;3.79;100.00
21658;BME280;10990;48.174;9.782;2023-02-12T08:53:09;94562.50;;;3.79;100.00
21658;BME280;10990;48.174;9.782;2023-02-12T08:55:36;94560.47;;;3.83;100.00
21658;BME280;10990;48.174;9.782;2023-02-12T08:58:02;94574.75;;;3.69;100.00
21658;BME280;10990;48.174;9.782;2023-02-12T09:00:29;94558.09;;;3.80;100.00
21658;BME280;10990;48.174;9.782;2023-02-12T09:02:56;94543.69;;;3.95;100.00
21658;BME280;10990;48.174;9.782;2023-02-12T09:05:22;94546.13;;;3.97;100.00
21658;BME280;10990;48.174;9.782;2023-02-12T09:07:52;94546.56;;;4.02;100.00
21658;BME280;10990;48.174;9.782;2023-02-12T09:10:18;94548.22;;;4.03;100.00
21658;BME280;10990;48.174;9.782;2023-02-12T09:12:45;94544.53;;;4.06;100.00
21658;BME280;10990;48.174;9.782;2023-02-12T09:15:12;94540.78;;;4.08;100.00
21658;BME280;10990;48.174;9.782;2023-02-12T09:17:39;94548.38;;;4.11;100.00
21658;BME280;10990;48.174;9.782;2023-02-12T09:20:08;94556.75;;;4.24;100.00
21658;BME280;10990;48.174;9.782;2023-02-12T09:22:35;94573.16;;;4.26;100.00
21658;BME280;10990;48.174;9.782;2023-02-12T09:25:04;94605.09;;;4.30;100.00
21658;BME280;10990;48.174;9.782;2023-02-12T09:27:31;94631.00;;;4.33;100.00
21658;BME280;10990;48.174;9.782;2023-02-12T09:29:58;94659.13;;;4.41;100.00
21658;BME280;10990;48.174;9.782;2023-02-12T09:32:25;94676.88;;;4.47;100.00
21658;BME280;10990;48.174;9.782;2023-02-12T09:34:51;94704.31;;;4.43;100.00
21658;BME280;10990;48.174;9.782;2023-02-12T09:37:18;94724.16;;;4.55;100.00
21658;BME280;10990;48.174;9.782;2023-02-12T09:39:45;94748.28;;;4.59;100.00
21658;BME280;10990;48.174;9.782;2023-02-12T09:42:25;94760.88;;;4.75;100.00
21658;BME280;10990;48.174;9.782;2023-02-12T09:45:01;94784.16;;;4.78;100.00
21658;BME280;10990;48.174;9.782;2023-02-12T09:47:35;94809.97;;;4.82;100.00
21658;BME280;10990;48.174;9.782;2023-02-12T09:50:16;94844.84;;;4.73;100.00
21658;BME280;10990;48.174;9.782;2023-02-12T09:52:48;94864.81;;;4.74;100.00
21658;BME280;10990;48.174;9.782;2023-02-12T09:55:16;94873.94;;;4.89;100.00
21658;BME280;10990;48.174;9.782;2023-02-12T09:57:45;94887.47;;;4.94;100.00
21658;BME280;10990;48.174;9.782;2023-02-12T10:00:15;94901.81;;;5.00;100.00
21658;BME280;10990;48.174;9.782;2023-02-12T10:02:44;94935.19;;;4.98;100.00
21658;BME280;10990;48.174;9.782;2023-02-12T10:05:14;94964.81;;;4.89;100.00
21658;BME280;10990;48.174;9.782;2023-02-12T10:08:11;94971.09;;;5.07;100.00
21658;BME280;10990;48.174;9.782;2023-02-12T10:10:48;94983.72;;;5.33;100.00
21658;BME280;10990;48.174;9.782;2023-02-12T10:13:26;94992.28;;;6.14;100.00
21658;BME280;10990;48.174;9.782;2023-02-12T10:16:01;94985.09;;;7.20;100.00
21658;BME280;10990;48.174;9.782;2023-02-12T10:18:41;95116.78;;;7.83;100.00
21658;BME280;10990;48.174;9.782;2023-02-12T10:21:23;95226.41;;;7.65;100.00
21658;BME280;10990;48.174;9.782;2023-02-12T10:24:12;95333.50;;;6.25;100.00
21658;BME280;10990;48.174;9.782;2023-02-12T10:26:46;95351.84;;;5.95;100.00
21658;BME280;10990;48.174;9.782;2023-02-12T10:29:19;95277.00;;;7.20;100.00
21658;BME280;10990;48.174;9.782;2023-02-12T10:31:50;95265.94;;;9.31;100.00
21658;BME280;10990;48.174;9.782;2023-02-12T10:34:21;95496.59;;;7.26;100.00
21658;BME280;10990;48.174;9.782;2023-02-12T10:36:50;95446.81;;;8.31;100.00
21658;BME280;10990;48.174;9.782;2023-02-12T10:39:21;95590.84;;;6.37;100.00
21658;BME280;10990;48.174;9.782;2023-02-12T10:41:54;95537.66;;;6.65;100.00
21658;BME280;10990;48.174;9.782;2023-02-12T10:44:23;95536.25;;;6.61;100.00
21658;BME280;10990;48.174;9.782;2023-02-12T10:46:50;95578.84;;;7.28;100.00
21658;BME280;10990;48.174;9.782;2023-02-12T10:49:18;95615.44;;;6.68;100.00
21658;BME280;10990;48.174;9.782;2023-02-12T10:51:55;95612.06;;;6.45;100.00
21658;BME280;10990;48.174;9.782;2023-02-12T10:54:34;95579.03;;;7.15;100.00
21658;BME280;10990;48.174;9.782;2023-02-12T10:57:08;95601.78;;;6.74;100.00
21658;BME280;10990;48.174;9.782;2023-02-12T10:59:37;95672.91;;;7.14;100.00
21658;BME280;10990;48.174;9.782;2023-02-12T11:02:16;95660.84;;;7.12;100.00
21658;BME280;10990;48.174;9.782;2023-02-12T11:04:44;95737.41;;;6.97;100.00
21658;BME280;10990;48.174;9.782;2023-02-12T11:07:10;95734.59;;;6.35;100.00
21658;BME280;10990;48.174;9.782;2023-02-12T11:09:39;95696.53;;;6.61;100.00
21658;BME280;10990;48.174;9.782;2023-02-12T11:12:19;95661.19;;;6.65;100.00
21658;BME280;10990;48.174;9.782;2023-02-12T11:14:52;95650.06;;;6.73;100.00
21658;BME280;10990;48.174;9.782;2023-02-12T11:17:24;95633.25;;;7.06;100.00
21658;BME280;10990;48.174;9.782;2023-02-12T11:20:18;95670.69;;;6.45;100.00
21658;BME280;10990;48.174;9.782;2023-02-12T11:22:54;95631.09;;;6.58;100.00
21658;BME280;10990;48.174;9.782;2023-02-12T11:25:23;95614.25;;;6.61;100.00
21658;BME280;10990;48.174;9.782;2023-02-12T11:28:14;95609.75;;;6.51;100.00
21658;BME280;10990;48.174;9.782;2023-02-12T11:30:54;95594.16;;;6.71;100.00
21658;BME280;10990;48.174;9.782;2023-02-12T11:33:27;95593.50;;;6.79;100.00
21658;BME280;10990;48.174;9.782;2023-02-12T11:35:56;95594.25;;;6.69;100.00
21658;BME280;10990;48.174;9.782;2023-02-12T11:38:26;95585.72;;;6.98;100.00
21658;BME280;10990;48.174;9.782;2023-02-12T11:40:57;95591.97;;;6.76;100.00
21658;BME280;10990;48.174;9.782;2023-02-12T11:43:25;95583.63;;;6.92;100.00
21658;BME280;10990;48.174;9.782;2023-02-12T11:45:58;95590.16;;;6.77;100.00
21658;BME280;10990;48.174;9.782;2023-02-12T11:48:28;95570.66;;;7.00;100.00
21658;BME280;10990;48.174;9.782;2023-02-12T11:50:59;95565.75;;;6.86;100.00
21658;BME280;10990;48.174;9.782;2023-02-12T11:53:29;95580.91;;;6.61;100.00
21658;BME280;10990;48.174;9.782;2023-02-12T11:55:59;95593.84;;;6.32;100.00
21658;BME280;10990;48.174;9.782;2023-02-12T11:58:27;95560.03;;;6.81;100.00
21658;BME280;10990;48.174;9.782;2023-02-12T12:01:15;95562.72;;;6.69;100.00
21658;BME280;10990;48.174;9.782;2023-02-12T12:03:49;95571.75;;;6.56;100.00
21658;BME280;10990;48.174;9.782;2023-02-12T12:06:36;95556.31;;;6.62;100.00
21658;BME280;10990;48.174;9.782;2023-02-12T12:09:12;95546.50;;;6.64;100.00
21658;BME280;10990;48.174;9.782;2023-02-12T12:11:55;95522.84;;;6.85;100.00
21658;BME280;10990;48.174;9.782;2023-02-12T12:14:28;95537.47;;;6.57;100.00
21658;BME280;10990;48.174;9.782;2023-02-12T12:16:59;95537.84;;;6.32;100.00
21658;BME280;10990;48.174;9.782;2023-02-12T12:19:55;95484.69;;;6.91;100.00
21658;BME280;10990;48.174;9.782;2023-02-12T12:22:34;95491.88;;;6.89;100.00
21658;BME280;10990;48.174;9.782;2023-02-12T12:25:09;95496.75;;;6.72;100.00
21658;BME280;10990;48.174;9.782;2023-02-12T12:27:41;95476.16;;;6.99;100.00
21658;BME280;10990;48.174;9.782;2023-02-12T12:30:47;95478.50;;;7.02;100.00
21658;BME280;10990;48.174;9.782;2023-02-12T12:33:21;95477.97;;;7.08;100.00
21658;BME280;10990;48.174;9.782;2023-02-12T12:36:02;95475.38;;;7.17;100.00
21658;BME280;10990;48.174;9.782;2023-02-12T12:38:41;95471.53;;;7.31;100.00
21658;BME280;10990;48.174;9.782;2023-02-12T12:41:20;95473.94;;;7.04;100.00
21658;BME280;10990;48.174;9.782;2023-02-12T12:44:00;95475.97;;;6.90;100.00
21658;BME280;10990;48.174;9.782;2023-02-12T12:47:00;95482.00;;;6.50;100.00
21658;BME280;10990;48.174;9.782;2023-02-12T12:49:51;95468.53;;;6.23;100.00
21658;BME280;10990;48.174;9.782;2023-02-12T12:52:44;95443.81;;;6.25;100.00
21658;BME280;10990;48.174;9.782;2023-02-12T12:55:31;95430.59;;;6.16;100.00
21658;BME280;10990;48.174;9.782;2023-02-12T12:58:08;95403.78;;;6.12;100.00
21658;BME280;10990;48.174;9.782;2023-02-12T13:00:52;95382.13;;;6.20;100.00
21658;BME280;10990;48.174;9.782;2023-02-12T13:03:43;95364.25;;;6.14;100.00
21658;BME280;10990;48.174;9.782;2023-02-12T13:06:48;95334.59;;;6.23;100.00
21658;BME280;10990;48.174;9.782;2023-02-12T13:09:27;95335.53;;;6.22;100.00
21658;BME280;10990;48.174;9.782;2023-02-12T13:12:10;95311.53;;;6.26;100.00
21658;BME280;10990;48.174;9.782;2023-02-12T13:14:42;95315.22;;;6.14;100.00
21658;BME280;10990;48.174;9.782;2023-02-12T13:17:16;95304.56;;;6.16;100.00
21658;BME280;10990;48.174;9.782;2023-02-12T13:19:54;95292.88;;;6.29;100.00
21658;BME280;10990;48.174;9.782;2023-02-12T13:22:30;95273.41;;;6.32;100.00
21658;BME280;10990;48.174;9.782;2023-02-12T13:25:05;95287.34;;;6.23;100.00